ESCF/LPI METAR and TAF weather

Enter ICAO airport designator
Station Type Date Time Source
ESCF METAR 2020/01/21 21:20 UTC NOAA

ESCF 212120Z AUTO 26009KT 9999 BKN160/// 06/03 Q1019


Station Type Date Time Source
ESCF Decoded METAR 2020/01/21 21:20 UTC NOAA

Linkoping / Malmen, Sweden (ESCF) 58-24N 015-31E 117M
Jan 21, 2020 - 04:20 PM EST / 2020.01.21 2120 UTC
Wind: from the W (260 degrees) at 10 MPH (9 KT):0
Visibility: greater than 7 mile(s):0
Sky conditions: mostly cloudy
Temperature: 42 F (6 C)
Dew Point: 37 F (3 C)
Relative Humidity: 81%
Pressure (altimeter): 30.09 in. Hg (1019 hPa)
ob: ESCF 212120Z AUTO 26009KT 9999 BKN160/// 06/03 Q1019
cycle: 21

Station Type Date Time Source
ESCF TAF UTC NOAA

Error!

Example: see airport list